KMTC/MTC METAR and TAF weather

Enter ICAO airport designator
Station Type Date Time Source
KMTC METAR 2019/02/22 23:56 UTC NOAA

KMTC 222356Z 00000KT 10SM SCT250 M01/M06 A3042 RMK AO2A SLP315 T10071061 10022 21014 53002 $


Station Type Date Time Source
KMTC Decoded METAR 2019/02/22 23:56 UTC NOAA

Selfridge Air National Guard Base, MI, United States (KMTC) 42-37N 082-50W
Feb 22, 2019 - 06:56 PM EST / 2019.02.22 2356 UTC
Wind: Calm:0
Visibility: 10 mile(s):0
Sky conditions: partly cloudy
Temperature: 30.7 F (-0.7 C)
Dew Point: 21.0 F (-6.1 C)
Relative Humidity: 66%
Pressure (altimeter): 30.42 in. Hg (1030 hPa)
Pressure tendency: 0.01 inches (0.2 hPa) higher than three hours ago
ob: KMTC 222356Z 00000KT 10SM SCT250 M01/M06 A3042 RMK AO2A SLP315 T10071061 10022 21014 53002
cycle: 0

Station Type Date Time Source
KMTC TAF 2019/02/22 17:15 UTC NOAA

TAF KMTC 221700Z 2217/2323 11006KT 9999 FEW250 QNH3047INS
BECMG 2318/2319 16009KT 8000 -RA OVC010 QNH2985INS TX04/2317Z TNM03/2217Z


Example: see airport list